Time,TemperatureF,DewpointF,PressureIn,WindDirection,WindDirectionDegrees,WindSpeedMPH,WindSpeedGustMPH,Humidity,HourlyPrecipIn,Conditions,Clouds,dailyrainin,SolarRadiationWatts/m^2,SoftwareType,DateUTC
2013-03-02 00:01:00,63.0,10.0,-100.00,West,269,4.0,10.0,12,-99.99,,,-99.99,0.000000,,2013-03-02 08:01:00,
2013-03-02 00:11:00,62.0,11.0,-100.00,NW,316,4.0,7.0,13,-99.99,,,-99.99,0.000000,,2013-03-02 08:11:00,
2013-03-02 00:21:00,60.0,11.0,-100.00,West,260,3.0,7.0,14,-99.99,,,-99.99,0.000000,,2013-03-02 08:21:00,
2013-03-02 00:31:00,60.0,11.0,-100.00,West,277,2.0,4.0,14,-99.99,,,-99.99,0.000000,,2013-03-02 08:31:00,
2013-03-02 00:42:00,59.0,10.0,-100.00,NW,309,2.0,5.0,14,-99.99,,,-99.99,0.000000,,2013-03-02 08:42:00,
2013-03-02 00:52:00,59.0,10.0,-100.00,NW,319,2.0,4.0,14,-99.99,,,-99.99,0.000000,,2013-03-02 08:52:00,
2013-03-02 01:01:00,59.0,10.0,-100.00,NW,319,2.0,4.0,14,-99.99,,,-99.99,0.000000,,2013-03-02 09:01:00,
2013-03-02 01:11:00,57.0,10.0,-100.00,NNW,337,4.0,6.0,15,-99.99,,,-99.99,0.000000,,2013-03-02 09:11:00,
2013-03-02 01:21:00,58.0,11.0,-100.00,NNW,327,4.0,7.0,15,-99.99,,,-99.99,0.000000,,2013-03-02 09:21:00,
2013-03-02 01:31:00,54.0,13.0,-100.00,South,180,2.0,3.0,19,-99.99,,,-99.99,0.000000,,2013-03-02 09:31:00,
2013-03-02 01:42:00,53.0,12.0,-100.00,North,3,3.0,5.0,19,-99.99,,,-99.99,0.000000,,2013-03-02 09:42:00,
2013-03-02 01:51:00,54.0,13.0,-100.00,NW,315,2.0,4.0,19,-99.99,,,-99.99,0.000000,,2013-03-02 09:51:00,
2013-03-02 02:01:00,54.0,13.0,-100.00,NW,315,2.0,4.0,19,-99.99,,,-99.99,0.000000,,2013-03-02 10:01:00,
2013-03-02 02:21:00,53.0,13.0,-100.00,NE,37,2.0,4.0,20,-99.99,,,-99.99,0.000000,,2013-03-02 10:21:00,
2013-03-02 02:31:00,54.0,11.0,-100.00,NNW,342,4.0,7.0,18,-99.99,,,-99.99,0.000000,,2013-03-02 10:31:00,
2013-03-02 02:42:00,52.0,13.0,-100.00,WSW,248,1.0,3.0,21,-99.99,,,-99.99,0.000000,,2013-03-02 10:42:00,
2013-03-02 02:51:00,53.0,13.0,-100.00,West,260,2.0,4.0,20,-99.99,,,-99.99,0.000000,,2013-03-02 10:51:00,
2013-03-02 03:01:00,53.0,13.0,-100.00,West,260,2.0,4.0,20,-99.99,,,-99.99,0.000000,,2013-03-02 11:01:00,
2013-03-02 03:11:00,56.0,13.0,-100.00,SW,228,2.0,5.0,18,-99.99,,,-99.99,0.000000,,2013-03-02 11:11:00,
2013-03-02 03:21:00,55.0,14.0,-100.00,NNW,328,3.0,5.0,19,-99.99,,,-99.99,0.000000,,2013-03-02 11:21:00,
2013-03-02 03:31:00,57.0,13.0,-100.00,NNW,340,6.0,8.0,17,-99.99,,,-99.99,0.000000,,2013-03-02 11:31:00,
2013-03-02 03:41:00,57.0,13.0,-100.00,North,1,5.0,8.0,17,-99.99,,,-99.99,0.000000,,2013-03-02 11:41:00,
2013-03-02 03:52:00,50.0,16.0,-100.00,WNW,301,3.0,5.0,25,-99.99,,,-99.99,0.000000,,2013-03-02 11:52:00,
2013-03-02 04:02:00,50.0,16.0,-100.00,WNW,301,3.0,5.0,25,-99.99,,,-99.99,0.000000,,2013-03-02 12:02:00,
2013-03-02 04:11:00,52.0,15.0,-100.00,NNW,331,4.0,6.0,23,-99.99,,,-99.99,0.000000,,2013-03-02 12:11:00,
2013-03-02 04:21:00,54.0,15.0,-100.00,WNW,287,2.0,4.0,21,-99.99,,,-99.99,0.000000,,2013-03-02 12:21:00,
2013-03-02 04:32:00,53.0,16.0,-100.00,WNW,300,2.0,5.0,23,-99.99,,,-99.99,0.000000,,2013-03-02 12:32:00,
2013-03-02 04:43:00,52.0,15.0,-100.00,NNW,345,4.0,6.0,23,-99.99,,,-99.99,0.000000,,2013-03-02 12:43:00,
2013-03-02 04:53:00,51.0,16.0,-100.00,North,360,3.0,6.0,24,-99.99,,,-99.99,0.000000,,2013-03-02 12:53:00,
2013-03-02 05:01:00,53.0,15.0,-100.00,NW,324,4.0,6.0,22,-99.99,,,-99.99,0.000000,,2013-03-02 13:01:00,
2013-03-02 05:11:00,52.0,16.0,-100.00,WNW,282,2.0,5.0,24,-99.99,,,-99.99,0.000000,,2013-03-02 13:11:00,
2013-03-02 05:21:00,53.0,15.0,-100.00,NNE,17,2.0,4.0,22,-99.99,,,-99.99,0.000000,,2013-03-02 13:21:00,
2013-03-02 05:31:00,53.0,16.0,-100.00,NNW,343,2.0,5.0,23,-99.99,,,-99.99,0.000000,,2013-03-02 13:31:00,
2013-03-02 05:41:00,54.0,16.0,-100.00,NNW,335,2.0,3.0,22,-99.99,,,-99.99,0.000000,,2013-03-02 13:41:00,
2013-03-02 05:52:00,53.0,15.0,-100.00,NW,306,2.0,4.0,22,-99.99,,,-99.99,0.000000,,2013-03-02 13:52:00,
2013-03-02 06:01:00,51.0,16.0,-100.00,NNE,14,3.0,5.0,25,-99.99,,,-99.99,0.000000,,2013-03-02 14:01:00,
2013-03-02 06:11:00,50.0,16.0,-100.00,North,10,1.0,2.0,25,-99.99,,,-99.99,0.000000,,2013-03-02 14:11:00,
2013-03-02 06:21:00,52.0,15.0,-100.00,NNW,345,2.0,5.0,23,-99.99,,,-99.99,0.000000,,2013-03-02 14:21:00,
2013-03-02 06:31:00,54.0,15.0,-100.00,NNW,334,3.0,5.0,21,-99.99,,,-99.99,0.000000,,2013-03-02 14:31:00,
2013-03-02 06:42:00,54.0,15.0,-100.00,NNW,334,3.0,5.0,21,-99.99,,,-99.99,0.000000,,2013-03-02 14:42:00,
2013-03-02 06:52:00,52.0,15.0,-100.00,NNW,331,3.0,5.0,23,-99.99,,,-99.99,0.000000,,2013-03-02 14:52:00,
2013-03-02 07:01:00,54.0,15.0,-100.00,NNW,338,4.0,5.0,21,-99.99,,,-99.99,0.000000,,2013-03-02 15:01:00,
2013-03-02 07:11:00,55.0,16.0,-100.00,NW,324,2.0,6.0,21,-99.99,,,-99.99,0.000000,,2013-03-02 15:11:00,
2013-03-02 07:21:00,54.0,15.0,-100.00,NW,326,3.0,5.0,21,-99.99,,,-99.99,0.000000,,2013-03-02 15:21:00,
2013-03-02 07:31:00,55.0,16.0,-100.00,NNW,335,1.0,3.0,21,-99.99,,,-99.99,0.000000,,2013-03-02 15:31:00,
2013-03-02 07:41:00,57.0,17.0,-100.00,NNW,331,2.0,4.0,21,-99.99,,,-99.99,0.000000,,2013-03-02 15:41:00,
2013-03-02 07:51:00,59.0,20.0,-100.00,WNW,302,2.0,5.0,22,-99.99,,,-99.99,0.000000,,2013-03-02 15:51:00,
2013-03-02 08:01:00,61.0,20.0,-100.00,SSW,203,1.0,4.0,20,-99.99,,,-99.99,0.000000,,2013-03-02 16:01:00,
2013-03-02 08:11:00,62.0,19.0,-100.00,SSW,199,4.0,6.0,19,-99.99,,,-99.99,0.000000,,2013-03-02 16:11:00,
2013-03-02 08:21:00,64.0,18.0,-100.00,SSE,168,4.0,11.0,17,-99.99,,,-99.99,0.000000,,2013-03-02 16:21:00,
2013-03-02 08:31:00,67.0,16.0,-100.00,ENE,61,4.0,11.0,14,-99.99,,,-99.99,0.000000,,2013-03-02 16:31:00,
2013-03-02 08:41:00,67.0,15.0,-100.00,East,89,9.0,16.0,13,-99.99,,,-99.99,0.000000,,2013-03-02 16:41:00,
2013-03-02 08:51:00,68.0,15.0,-100.00,SSE,158,6.0,16.0,13,-99.99,,,-99.99,0.000000,,2013-03-02 16:51:00,
2013-03-02 09:01:00,69.0,16.0,-100.00,South,169,3.0,10.0,13,-99.99,,,-99.99,0.000000,,2013-03-02 17:01:00,
2013-03-02 09:11:00,70.0,15.0,-100.00,East,84,3.0,10.0,12,-99.99,,,-99.99,0.000000,,2013-03-02 17:11:00,
2013-03-02 09:21:00,71.0,14.0,-100.00,East,97,5.0,12.0,11,-99.99,,,-99.99,0.000000,,2013-03-02 17:21:00,
2013-03-02 09:31:00,70.0,11.0,-100.00,ESE,109,10.0,17.0,10,-99.99,,,-99.99,0.000000,,2013-03-02 17:31:00,
2013-03-02 09:41:00,70.0,13.0,-100.00,ESE,106,10.0,17.0,11,-99.99,,,-99.99,0.000000,,2013-03-02 17:41:00,
2013-03-02 09:52:00,70.0,13.0,-100.00,ESE,105,11.0,17.0,11,-99.99,,,-99.99,0.000000,,2013-03-02 17:52:00,
2013-03-02 10:01:00,71.0,14.0,-100.00,ESE,103,10.0,14.0,11,-99.99,,,-99.99,0.000000,,2013-03-02 18:01:00,
2013-03-02 10:11:00,71.0,14.0,-100.00,East,101,10.0,16.0,11,-99.99,,,-99.99,0.000000,,2013-03-02 18:11:00,
2013-03-02 10:21:00,72.0,15.0,-100.00,SE,134,5.0,10.0,11,-99.99,,,-99.99,0.000000,,2013-03-02 18:21:00,
2013-03-02 10:31:00,72.0,12.0,-100.00,SE,137,7.0,13.0,10,-99.99,,,-99.99,0.000000,,2013-03-02 18:31:00,
2013-03-02 10:41:00,72.0,12.0,-100.00,SE,137,7.0,12.0,10,-99.99,,,-99.99,0.000000,,2013-03-02 18:41:00,
2013-03-02 10:51:00,73.0,11.0,-100.00,SE,136,6.0,13.0,9,-99.99,,,-99.99,0.000000,,2013-03-02 18:51:00,
2013-03-02 11:01:00,73.0,11.0,-100.00,SE,136,6.0,13.0,9,-99.99,,,-99.99,0.000000,,2013-03-02 19:01:00,
2013-03-02 11:11:00,73.0,11.0,-100.00,SSE,148,8.0,14.0,9,-99.99,,,-99.99,0.000000,,2013-03-02 19:11:00,
2013-03-02 11:21:00,72.0,10.0,-100.00,SE,129,6.0,13.0,9,-99.99,,,-99.99,0.000000,,2013-03-02 19:21:00,
2013-03-02 11:31:00,73.0,11.0,-100.00,SSE,155,6.0,11.0,9,-99.99,,,-99.99,0.000000,,2013-03-02 19:31:00,
2013-03-02 11:42:00,73.0,11.0,-100.00,SSE,153,5.0,11.0,9,-99.99,,,-99.99,0.000000,,2013-03-02 19:42:00,
2013-03-02 11:52:00,73.0,11.0,-100.00,South,187,8.0,12.0,9,-99.99,,,-99.99,0.000000,,2013-03-02 19:52:00,
2013-03-02 12:01:00,73.0,11.0,-100.00,South,177,6.0,13.0,9,-99.99,,,-99.99,0.000000,,2013-03-02 20:01:00,
2013-03-02 12:11:00,73.0,11.0,-100.00,South,189,7.0,13.0,9,-99.99,,,-99.99,0.000000,,2013-03-02 20:11:00,
2013-03-02 12:21:00,74.0,12.0,-100.00,SSE,152,5.0,12.0,9,-99.99,,,-99.99,0.000000,,2013-03-02 20:21:00,
2013-03-02 12:31:00,74.0,12.0,-100.00,South,172,5.0,10.0,9,-99.99,,,-99.99,0.000000,,2013-03-02 20:31:00,
2013-03-02 12:41:00,74.0,9.0,-100.00,South,176,8.0,14.0,8,-99.99,,,-99.99,0.000000,,2013-03-02 20:41:00,
2013-03-02 12:52:00,74.0,9.0,-100.00,South,189,5.0,10.0,8,-99.99,,,-99.99,0.000000,,2013-03-02 20:52:00,
2013-03-02 13:02:00,75.0,12.0,-100.00,SE,142,5.0,12.0,9,-99.99,,,-99.99,0.000000,,2013-03-02 21:02:00,
2013-03-02 13:11:00,75.0,12.0,-100.00,SSE,151,5.0,11.0,9,-99.99,,,-99.99,0.000000,,2013-03-02 21:11:00,
2013-03-02 13:21:00,75.0,12.0,-100.00,South,183,9.0,16.0,9,-99.99,,,-99.99,0.000000,,2013-03-02 21:21:00,
2013-03-02 13:31:00,75.0,12.0,-100.00,South,185,6.0,12.0,9,-99.99,,,-99.99,0.000000,,2013-03-02 21:31:00,
2013-03-02 13:41:00,76.0,16.0,-100.00,South,175,7.0,14.0,10,-99.99,,,-99.99,0.000000,,2013-03-02 21:41:00,
2013-03-02 13:52:00,76.0,18.0,-100.00,South,176,8.0,18.0,11,-99.99,,,-99.99,0.000000,,2013-03-02 21:52:00,
2013-03-02 14:01:00,76.0,18.0,-100.00,South,176,8.0,18.0,11,-99.99,,,-99.99,0.000000,,2013-03-02 22:01:00,
2013-03-02 14:11:00,75.0,17.0,-100.00,SSW,210,9.0,14.0,11,-99.99,,,-99.99,0.000000,,2013-03-02 22:11:00,
2013-03-02 14:21:00,76.0,18.0,-100.00,WSW,247,5.0,13.0,11,-99.99,,,-99.99,0.000000,,2013-03-02 22:21:00,
2013-03-02 14:31:00,75.0,17.0,-100.00,SW,215,9.0,19.0,11,-99.99,,,-99.99,0.000000,,2013-03-02 22:31:00,
2013-03-02 14:42:00,75.0,17.0,-100.00,SSW,199,8.0,13.0,11,-99.99,,,-99.99,0.000000,,2013-03-02 22:42:00,
2013-03-02 14:51:00,76.0,18.0,-100.00,SSW,194,9.0,18.0,11,-99.99,,,-99.99,0.000000,,2013-03-02 22:51:00,
2013-03-02 15:01:00,75.0,17.0,-100.00,SW,226,9.0,15.0,11,-99.99,,,-99.99,0.000000,,2013-03-02 23:01:00,
2013-03-02 15:11:00,75.0,19.0,-100.00,West,280,5.0,11.0,12,-99.99,,,-99.99,0.000000,,2013-03-02 23:11:00,
2013-03-02 15:21:00,74.0,22.0,-100.00,SW,229,9.0,15.0,14,-99.99,,,-99.99,0.000000,,2013-03-02 23:21:00,
2013-03-02 15:31:00,74.0,22.0,-100.00,WSW,257,7.0,11.0,14,-99.99,,,-99.99,0.000000,,2013-03-02 23:31:00,
2013-03-02 15:41:00,74.0,22.0,-100.00,SW,222,8.0,13.0,14,-99.99,,,-99.99,0.000000,,2013-03-02 23:41:00,
2013-03-02 15:52:00,74.0,22.0,-100.00,SW,220,5.0,11.0,14,-99.99,,,-99.99,0.000000,,2013-03-02 23:52:00,
2013-03-02 16:02:00,73.0,23.0,-100.00,SW,233,9.0,14.0,15,-99.99,,,-99.99,0.000000,,2013-03-03 00:02:00,
2013-03-02 16:11:00,72.0,22.0,-100.00,SW,236,7.0,10.0,15,-99.99,,,-99.99,0.000000,,2013-03-03 00:11:00,
2013-03-02 16:22:00,72.0,22.0,-100.00,WSW,240,6.0,9.0,15,-99.99,,,-99.99,0.000000,,2013-03-03 00:22:00,
2013-03-02 16:31:00,73.0,23.0,-100.00,SW,233,5.0,9.0,15,-99.99,,,-99.99,0.000000,,2013-03-03 00:31:00,
2013-03-02 16:42:00,72.0,22.0,-100.00,SW,219,5.0,8.0,15,-99.99,,,-99.99,0.000000,,2013-03-03 00:42:00,
2013-03-02 16:52:00,72.0,22.0,-100.00,WSW,247,5.0,8.0,15,-99.99,,,-99.99,0.000000,,2013-03-03 00:52:00,
2013-03-02 17:01:00,72.0,22.0,-100.00,WSW,254,4.0,7.0,15,-99.99,,,-99.99,0.000000,,2013-03-03 01:01:00,
2013-03-02 17:11:00,71.0,23.0,-100.00,WSW,239,5.0,9.0,16,-99.99,,,-99.99,0.000000,,2013-03-03 01:11:00,
2013-03-02 17:21:00,69.0,24.0,-100.00,SW,236,4.0,6.0,18,-99.99,,,-99.99,0.000000,,2013-03-03 01:21:00,
2013-03-02 17:31:00,69.0,25.0,-100.00,WSW,246,3.0,5.0,19,-99.99,,,-99.99,0.000000,,2013-03-03 01:31:00,
2013-03-02 17:41:00,68.0,24.0,-100.00,WSW,253,1.0,4.0,19,-99.99,,,-99.99,0.000000,,2013-03-03 01:41:00,
2013-03-02 17:52:00,68.0,25.0,-100.00,North,1,1.0,2.0,20,-99.99,,,-99.99,0.000000,,2013-03-03 01:52:00,
2013-03-02 18:01:00,67.0,26.0,-100.00,NNE,17,1.0,2.0,21,-99.99,,,-99.99,0.000000,,2013-03-03 02:01:00,
2013-03-02 18:11:00,66.0,27.0,-100.00,South,180,1.0,2.0,23,-99.99,,,-99.99,0.000000,,2013-03-03 02:11:00,
2013-03-02 18:21:00,64.0,26.0,-100.00,West,278,1.0,3.0,24,-99.99,,,-99.99,0.000000,,2013-03-03 02:21:00,
2013-03-02 18:31:00,63.0,28.0,-100.00,North,352,3.0,4.0,26,-99.99,,,-99.99,0.000000,,2013-03-03 02:31:00,
2013-03-02 18:41:00,62.0,26.0,-100.00,NW,321,4.0,8.0,25,-99.99,,,-99.99,0.000000,,2013-03-03 02:41:00,
2013-03-02 18:52:00,62.0,24.0,-100.00,NW,322,5.0,8.0,23,-99.99,,,-99.99,0.000000,,2013-03-03 02:52:00,
2013-03-02 19:01:00,61.0,24.0,-100.00,NNW,337,6.0,9.0,24,-99.99,,,-99.99,0.000000,,2013-03-03 03:01:00,
2013-03-02 19:11:00,59.0,23.0,-100.00,NNW,330,8.0,12.0,25,-99.99,,,-99.99,0.000000,,2013-03-03 03:11:00,
2013-03-02 19:21:00,59.0,25.0,-100.00,NW,316,7.0,10.0,27,-99.99,,,-99.99,0.000000,,2013-03-03 03:21:00,
2013-03-02 19:31:00,57.0,25.0,-100.00,NNW,343,7.0,14.0,29,-99.99,,,-99.99,0.000000,,2013-03-03 03:31:00,
2013-03-02 19:41:00,57.0,25.0,-100.00,North,350,12.0,16.0,29,-99.99,,,-99.99,0.000000,,2013-03-03 03:41:00,
2013-03-02 19:51:00,56.0,25.0,-100.00,North,353,11.0,15.0,30,-99.99,,,-99.99,0.000000,,2013-03-03 03:51:00,
2013-03-02 20:01:00,55.0,24.0,-100.00,NNW,332,6.0,12.0,30,-99.99,,,-99.99,0.000000,,2013-03-03 04:01:00,
2013-03-02 20:11:00,55.0,25.0,-100.00,NNW,339,6.0,10.0,31,-99.99,,,-99.99,0.000000,,2013-03-03 04:11:00,
2013-03-02 20:21:00,54.0,24.0,-100.00,NNW,345,5.0,8.0,31,-99.99,,,-99.99,0.000000,,2013-03-03 04:21:00,
2013-03-02 20:31:00,53.0,23.0,-100.00,NNW,334,8.0,14.0,31,-99.99,,,-99.99,0.000000,,2013-03-03 04:31:00,
2013-03-02 20:41:00,53.0,23.0,-100.00,NNW,337,9.0,13.0,31,-99.99,,,-99.99,0.000000,,2013-03-03 04:41:00,
2013-03-02 20:51:00,53.0,23.0,-100.00,NW,323,6.0,10.0,31,-99.99,,,-99.99,0.000000,,2013-03-03 04:51:00,
2013-03-02 21:01:00,52.0,22.0,-100.00,NNW,331,7.0,10.0,31,-99.99,,,-99.99,0.000000,,2013-03-03 05:01:00,
2013-03-02 21:11:00,51.0,21.0,-100.00,NNW,333,7.0,10.0,31,-99.99,,,-99.99,0.000000,,2013-03-03 05:11:00,
2013-03-02 21:22:00,51.0,21.0,-100.00,NNW,328,8.0,13.0,30,-99.99,,,-99.99,0.000000,,2013-03-03 05:22:00,
2013-03-02 21:32:00,51.0,21.0,-100.00,NW,322,6.0,9.0,30,-99.99,,,-99.99,0.000000,,2013-03-03 05:32:00,
2013-03-02 21:42:00,49.0,20.0,-100.00,NNW,347,4.0,7.0,32,-99.99,,,-99.99,0.000000,,2013-03-03 05:42:00,
2013-03-02 21:52:00,49.0,20.0,-100.00,NNW,330,4.0,6.0,31,-99.99,,,-99.99,0.000000,,2013-03-03 05:52:00,
2013-03-02 22:01:00,50.0,20.0,-100.00,NW,325,6.0,9.0,30,-99.99,,,-99.99,0.000000,,2013-03-03 06:01:00,
2013-03-02 22:11:00,48.0,20.0,-100.00,NNW,337,2.0,5.0,33,-99.99,,,-99.99,0.000000,,2013-03-03 06:11:00,
2013-03-02 22:21:00,48.0,21.0,-100.00,North,349,2.0,6.0,34,-99.99,,,-99.99,0.000000,,2013-03-03 06:21:00,
2013-03-02 22:31:00,49.0,20.0,-100.00,NW,312,3.0,7.0,32,-99.99,,,-99.99,0.000000,,2013-03-03 06:31:00,
2013-03-02 22:42:00,49.0,20.0,-100.00,NW,312,3.0,7.0,32,-99.99,,,-99.99,0.000000,,2013-03-03 06:42:00,
2013-03-02 22:52:00,48.0,21.0,-100.00,NNW,328,3.0,6.0,34,-99.99,,,-99.99,0.000000,,2013-03-03 06:52:00,
2013-03-02 23:01:00,48.0,21.0,-100.00,NNW,328,3.0,6.0,34,-99.99,,,-99.99,0.000000,,2013-03-03 07:01:00,
2013-03-02 23:11:00,47.0,21.0,-100.00,SE,128,1.0,3.0,35,-99.99,,,-99.99,0.000000,,2013-03-03 07:11:00,
2013-03-02 23:21:00,47.0,20.0,-100.00,NE,46,2.0,6.0,34,-99.99,,,-99.99,0.000000,,2013-03-03 07:21:00,
2013-03-02 23:31:00,47.0,21.0,-100.00,NE,50,3.0,7.0,35,-99.99,,,-99.99,0.000000,,2013-03-03 07:31:00,
2013-03-02 23:42:00,47.0,20.0,-100.00,SE,125,1.0,4.0,34,-99.99,,,-99.99,0.000000,,2013-03-03 07:42:00,
2013-03-02 23:51:00,48.0,20.0,-100.00,NE,36,2.0,8.0,32,-99.99,,,-99.99,0.000000,,2013-03-03 07:51:00,